Time;durP1;ratioP1;P1;durP2;ratioP2;P2;SDS_P1;SDS_P2;PMS_P1;PMS_P2;Temp;Humidity;BMP_temperature;BMP_pressure;BME280_temperature;BME280_humidity;BME280_pressure;Samples;Min_cycle;Max_cycle;Signal;HPM_P1;HPM_P2
2022/11/16 00:00:10;;;;;;;16.73;12.13;;;7.50;99.90;;;-141.84;77.29;19096.47;5032042;28;20230;-61
2022/11/16 00:02:39;;;;;;;15.30;11.90;;;7.40;99.90;;;-141.84;77.15;19102.56;5032418;28;20232;-60
2022/11/16 00:05:08;;;;;;;14.30;11.27;;;7.40;99.90;;;-141.84;77.00;19126.97;5032235;28;20210;-61
2022/11/16 00:07:36;;;;;;;13.33;11.70;;;7.40;99.90;;;-141.84;77.31;19106.66;5031453;28;20615;-63
2022/11/16 00:10:12;;;;;;;17.50;11.80;;;7.30;99.90;;;-141.84;77.85;19110.72;5051082;28;20231;-63
2022/11/16 00:12:40;;;;;;;15.90;11.70;;;7.20;99.90;;;-141.84;77.30;19100.53;5050436;28;20735;-61
2022/11/16 00:15:09;;;;;;;15.17;11.10;;;7.20;99.90;;;-141.84;77.90;19114.78;5051451;28;20296;-61
2022/11/16 00:17:38;;;;;;;16.00;11.77;;;7.10;99.90;;;-141.84;77.25;19086.31;5050360;28;20229;-65
2022/11/16 00:20:08;;;;;;;17.27;12.10;;;7.10;99.90;;;-141.84;77.34;19088.34;5051523;28;20232;-61
2022/11/16 00:22:37;;;;;;;16.13;11.33;;;7.10;99.90;;;-141.84;77.87;19080.22;5038863;28;20206;-60
2022/11/16 00:25:06;;;;;;;16.40;12.53;;;7.00;99.90;;;-141.84;77.93;19059.91;5012106;28;20203;-62
2022/11/16 00:27:34;;;;;;;13.27;11.63;;;6.90;99.90;;;-141.84;77.18;19088.34;5015390;28;20276;-63
2022/11/16 00:30:04;;;;;;;15.90;12.47;;;6.90;99.90;;;-141.84;76.87;19053.81;5059493;28;20688;-62
2022/11/16 00:32:32;;;;;;;16.77;12.07;;;6.90;99.90;;;-141.84;76.60;19084.28;5071515;28;20275;-62
2022/11/16 00:35:01;;;;;;;17.17;12.40;;;6.90;99.90;;;-141.84;76.84;19066.00;5047924;28;20237;-62
2022/11/16 00:37:29;;;;;;;15.53;11.53;;;6.90;99.90;;;-141.84;77.34;19055.84;5031228;28;20666;-62
2022/11/16 00:39:58;;;;;;;15.87;11.77;;;6.80;99.90;;;-141.84;77.85;19057.88;5031829;28;20217;-61
2022/11/16 00:42:26;;;;;;;15.80;12.20;;;6.70;99.90;;;-141.84;78.18;19084.28;5031211;28;20229;-61
2022/11/16 00:44:54;;;;;;;15.03;12.53;;;6.70;99.90;;;-141.84;78.57;19066.00;5030824;28;20221;-61
2022/11/16 00:47:22;;;;;;;15.97;12.27;;;6.70;99.90;;;-141.84;78.71;19053.81;5048250;28;20761;-62
2022/11/16 00:49:50;;;;;;;15.67;12.50;;;6.60;99.90;;;-141.84;78.75;19078.19;5071114;28;20716;-62
2022/11/16 00:52:20;;;;;;;20.00;12.67;;;6.60;99.90;;;-141.84;78.19;19082.25;5070864;28;20201;-61
2022/11/16 00:54:48;;;;;;;18.40;13.50;;;6.50;99.90;;;-141.84;78.23;19066.00;5071159;28;20282;-61
2022/11/16 00:57:16;;;;;;;15.70;12.80;;;6.60;99.90;;;-141.84;78.06;19080.22;5070401;28;20228;-62
2022/11/16 00:59:44;;;;;;;15.67;13.97;;;6.60;99.90;;;-141.84;76.98;19086.31;5069838;28;20256;-62
2022/11/16 01:02:12;;;;;;;17.27;12.07;;;6.60;99.90;;;-141.84;76.26;19100.53;5070345;28;20270;-62
2022/11/16 01:04:40;;;;;;;17.93;13.60;;;6.60;99.90;;;-141.84;76.38;19086.31;5070161;28;20587;-63
2022/11/16 01:07:08;;;;;;;15.77;12.87;;;6.60;99.90;;;-141.84;76.42;19059.91;5070606;28;20201;-62
2022/11/16 01:09:38;;;;;;;16.60;12.70;;;6.60;99.90;;;-141.84;76.70;19082.25;5045061;28;20755;-62
2022/11/16 01:12:08;;;;;;;16.87;12.77;;;6.60;99.90;;;-141.84;77.09;19045.69;5015507;28;20234;-62
2022/11/16 01:14:38;;;;;;;16.97;13.60;;;6.60;99.90;;;-141.84;77.47;19066.00;5010558;28;20226;-63
2022/11/16 01:17:06;;;;;;;16.97;13.37;;;6.50;99.90;;;-141.84;77.47;19114.78;5011054;28;20274;-61
2022/11/16 01:19:35;;;;;;;15.80;12.53;;;6.50;99.90;;;-141.84;77.48;19039.59;5021539;28;20605;-62
2022/11/16 01:22:03;;;;;;;17.23;13.43;;;6.60;99.90;;;-141.84;77.58;19072.09;5031476;28;20218;-63
2022/11/16 01:24:32;;;;;;;16.20;13.40;;;6.50;99.90;;;-141.84;77.34;19078.19;5030640;28;20629;-63
2022/11/16 01:27:01;;;;;;;16.67;13.23;;;6.50;99.90;;;-141.84;76.70;19088.34;5030771;28;20226;-62
2022/11/16 01:29:31;;;;;;;17.73;12.87;;;6.60;99.90;;;-141.84;76.86;19076.16;5030195;28;20221;-62
2022/11/16 01:31:59;;;;;;;15.27;12.73;;;6.60;99.90;;;-141.84;77.58;19045.69;5030379;28;20736;-63
2022/11/16 01:34:27;;;;;;;15.33;12.30;;;6.50;99.90;;;-141.84;78.22;19053.81;5030799;28;20206;-61
2022/11/16 01:36:55;;;;;;;16.57;12.43;;;6.40;99.90;;;-141.84;77.97;19041.63;5031039;28;20260;-61
2022/11/16 01:39:23;;;;;;;17.40;12.83;;;6.30;99.90;;;-141.84;78.06;19053.81;5030267;28;20225;-63
2022/11/16 01:41:52;;;;;;;18.30;12.90;;;6.30;99.90;;;-141.84;78.54;19011.13;5030451;28;20291;-61
2022/11/16 01:45:01;;;;;;;16.33;12.27;;;6.30;99.90;;;-141.84;78.11;19033.50;5030599;28;20580;-63
2022/11/16 01:47:30;;;;;;;15.97;11.93;;;6.30;99.90;;;-141.84;78.73;19037.56;5030524;28;20241;-62
2022/11/16 01:50:07;;;;;;;15.57;12.30;;;6.20;99.90;;;-141.84;78.65;19007.06;5030582;28;20229;-62
2022/11/16 01:52:43;;;;;;;17.20;13.23;;;6.20;99.90;;;-141.84;79.01;19005.03;5030332;28;20186;-61
2022/11/16 01:55:13;;;;;;;15.53;12.80;;;6.10;99.90;;;-141.84;79.08;19015.19;5030669;28;20217;-61
2022/11/16 01:57:45;;;;;;;16.67;12.87;;;6.10;99.90;;;-141.84;78.91;19000.97;5030162;28;20364;-61
2022/11/16 02:00:17;;;;;;;17.70;12.90;;;6.10;99.90;;;-141.84;78.68;19007.06;5030177;28;20229;-62
2022/11/16 02:02:45;;;;;;;14.93;12.80;;;6.00;99.90;;;-141.84;77.81;19053.81;5029977;28;20241;-62
2022/11/16 02:05:19;;;;;;;16.40;12.83;;;6.10;99.90;;;-141.84;77.55;19029.44;5030450;28;20226;-62
2022/11/16 02:12:05;;;;;;;16.50;12.63;;;6.10;99.90;;;-141.84;77.35;19031.47;5030100;28;20735;-63
2022/11/16 02:14:57;;;;;;;15.20;12.40;;;6.10;99.90;;;-141.84;76.65;19066.00;5029781;28;20283;-62
2022/11/16 02:17:44;;;;;;;16.77;13.07;;;6.20;99.90;;;-141.84;75.39;19078.19;5030237;28;20268;-61
2022/11/16 02:20:54;;;;;;;16.50;12.27;;;6.30;99.90;;;-141.84;75.56;19076.16;5014396;28;20234;-62
2022/11/16 02:24:05;;;;;;;15.60;11.53;;;6.20;99.90;;;-141.84;76.33;19025.38;5010367;28;20231;-62
2022/11/16 02:27:15;;;;;;;15.13;11.53;;;6.20;99.90;;;-141.84;75.86;19063.97;5010399;28;20234;-62
2022/11/16 02:29:50;;;;;;;17.73;12.57;;;6.20;99.90;;;-141.84;75.89;19059.91;4997647;28;20377;-62
2022/11/16 02:32:26;;;;;;;16.97;11.97;;;6.20;99.90;;;-141.84;76.07;19025.38;5010159;28;20237;-62
2022/11/16 02:35:02;;;;;;;13.50;11.47;;;6.20;99.90;;;-141.84;76.48;19037.56;5010237;28;20226;-61
2022/11/16 02:37:38;;;;;;;17.20;12.33;;;6.10;99.90;;;-141.84;76.17;19035.53;5010177;28;20187;-61
2022/11/16 02:40:13;;;;;;;15.13;11.97;;;6.00;99.90;;;-141.84;76.15;19076.16;5027759;28;20205;-61
2022/11/16 02:42:47;;;;;;;15.83;11.87;;;6.10;99.90;;;-141.84;76.06;19074.13;5033365;28;20229;-62
2022/11/16 02:45:24;;;;;;;15.00;11.83;;;6.10;99.90;;;-141.84;76.21;19051.78;5033391;28;20248;-61
2022/11/16 02:47:59;;;;;;;16.27;12.47;;;6.10;99.90;;;-141.84;74.95;19106.66;5033488;28;20541;-61
2022/11/16 02:50:29;;;;;;;13.87;11.83;;;6.20;99.90;;;-141.84;75.51;19051.78;5033616;28;20233;-60
2022/11/16 02:52:58;;;;;;;16.80;12.50;;;6.10;99.90;;;-141.84;75.51;19057.88;5033322;28;20637;-61
2022/11/16 02:55:32;;;;;;;14.47;11.70;;;6.20;99.90;;;-141.84;75.49;19033.50;5033525;28;20209;-60
2022/11/16 02:58:03;;;;;;;15.57;12.57;;;6.20;99.90;;;-141.84;75.79;19086.31;5033926;28;20187;-61
2022/11/16 03:00:43;;;;;;;15.70;11.97;;;6.20;99.90;;;-141.84;75.96;19074.13;5033400;28;20237;-61
2022/11/16 03:03:25;;;;;;;14.43;11.43;;;6.10;99.90;;;-141.84;75.88;19066.00;5033036;28;20639;-61
2022/11/16 03:05:59;;;;;;;15.27;11.97;;;6.00;99.90;;;-141.84;75.96;18998.94;5033398;28;20233;-62
2022/11/16 03:08:33;;;;;;;13.90;11.87;;;6.00;99.90;;;-141.84;75.99;19066.00;5033108;28;20237;-61
2022/11/16 03:13:56;;;;;;;15.77;12.00;;;6.00;99.90;;;-141.84;75.92;19031.47;5013326;28;20258;-62
2022/11/16 03:16:32;;;;;;;13.97;11.63;;;6.00;99.90;;;-141.84;76.58;19033.50;5013598;28;20190;-62
2022/11/16 03:19:07;;;;;;;15.10;11.33;;;6.00;99.90;;;-141.84;77.02;18996.91;5019501;28;20194;-62
2022/11/16 03:21:41;;;;;;;14.73;11.60;;;6.00;99.90;;;-141.84;76.83;19047.72;5032935;28;20360;-62
2022/11/16 03:24:10;;;;;;;14.53;11.37;;;5.90;99.90;;;-141.84;77.17;19019.28;5032969;28;20229;-61
2022/11/16 03:26:52;;;;;;;14.90;11.47;;;5.90;99.90;;;-141.84;77.13;19013.16;5033097;28;20233;-63
2022/11/16 03:29:29;;;;;;;16.97;12.30;;;5.90;99.90;;;-141.84;75.84;19070.06;5032810;28;20225;-61
2022/11/16 03:32:11;;;;;;;15.03;11.97;;;5.90;99.90;;;-141.84;76.31;19019.28;5032923;28;20239;-61
2022/11/16 03:34:49;;;;;;;14.13;11.20;;;5.90;99.90;;;-141.84;76.60;19021.31;5032910;28;20186;-61
2022/11/16 03:37:20;;;;;;;14.40;11.10;;;5.80;99.90;;;-141.84;76.14;19049.75;5033425;28;20186;-61
2022/11/16 03:39:51;;;;;;;14.97;11.47;;;5.90;99.90;;;-141.84;75.99;19070.06;5052560;28;20222;-61
2022/11/16 03:42:23;;;;;;;15.97;12.10;;;5.90;99.90;;;-141.84;75.64;19051.78;5052749;28;20236;-60
2022/11/16 03:44:53;;;;;;;15.30;11.60;;;5.90;99.90;;;-141.84;76.09;19045.69;5052421;28;20364;-62
2022/11/16 03:47:23;;;;;;;14.47;11.20;;;5.80;99.90;;;-141.84;76.58;19033.50;5052418;28;20229;-61
2022/11/16 03:49:52;;;;;;;15.27;11.43;;;5.80;99.90;;;-141.84;76.82;19007.06;5052408;28;20720;-61
2022/11/16 03:52:20;;;;;;;15.00;11.57;;;5.70;99.90;;;-141.84;76.32;19017.25;5052842;28;20200;-60
2022/11/16 03:54:48;;;;;;;15.63;11.10;;;5.70;99.90;;;-141.84;75.83;19023.34;5032548;28;20301;-62
2022/11/16 03:57:17;;;;;;;14.97;10.70;;;5.70;99.90;;;-141.84;76.08;19041.63;5032485;28;20230;-62
2022/11/16 03:59:45;;;;;;;14.60;11.03;;;5.80;99.90;;;-141.84;76.44;19045.69;5032189;28;20262;-61
2022/11/16 04:02:14;;;;;;;14.57;11.07;;;5.70;99.90;;;-141.84;76.77;18996.91;5032289;28;20299;-61
2022/11/16 04:24:16;;;;;;;13.83;9.47;;;5.80;99.90;;;-141.84;77.72;19011.13;5031650;28;20795;-62
2022/11/16 04:29:37;;;;;;;14.87;11.07;;;5.80;99.90;;;-141.84;78.27;19009.09;5031501;28;20773;-62
2022/11/16 04:37:56;;;;;;;11.77;9.53;;;5.80;99.90;;;-141.84;76.74;19041.63;4989834;28;20669;-62
2022/11/16 04:40:28;;;;;;;14.07;10.43;;;5.90;99.90;;;-141.84;76.56;19037.56;5014786;28;20240;-63
2022/11/16 04:42:59;;;;;;;14.57;10.37;;;5.90;99.90;;;-141.84;76.05;19092.41;5032109;28;20206;-62
2022/11/16 04:48:17;;;;;;;12.80;9.77;;;6.00;99.90;;;-141.84;76.85;19021.31;5031773;28;20228;-63
2022/11/16 04:50:47;;;;;;;12.67;10.10;;;5.90;99.90;;;-141.84;77.30;19023.34;5031501;28;20234;-61
2022/11/16 04:53:16;;;;;;;12.97;10.63;;;5.90;99.90;;;-141.84;77.43;19015.19;5031334;28;20720;-62
2022/11/16 04:55:44;;;;;;;16.23;11.70;;;5.90;99.90;;;-141.84;77.16;19053.81;5031139;28;20292;-62
2022/11/16 04:58:12;;;;;;;13.13;10.80;;;5.90;99.90;;;-141.84;77.41;19066.00;5032068;28;20205;-62
2022/11/16 05:00:40;;;;;;;12.70;10.13;;;6.20;99.90;;;-141.84;76.68;19066.00;5031156;28;20237;-63
2022/11/16 05:03:08;;;;;;;12.17;9.87;;;6.00;99.90;;;-141.84;76.49;19033.50;5030592;28;20229;-63
2022/11/16 05:05:37;;;;;;;12.97;10.57;;;5.90;99.90;;;-141.84;76.88;19070.06;5050040;28;20229;-62
2022/11/16 05:08:05;;;;;;;13.50;10.33;;;5.90;99.90;;;-141.84;75.91;19072.09;5051178;28;20294;-62
2022/11/16 05:10:37;;;;;;;12.93;10.37;;;6.00;99.90;;;-141.84;76.45;19061.94;5031221;28;20209;-62
2022/11/16 05:13:05;;;;;;;13.37;10.30;;;6.00;99.90;;;-141.84;77.41;19027.41;5031677;28;20229;-61
2022/11/16 05:15:33;;;;;;;13.10;10.37;;;6.00;99.90;;;-141.84;77.71;19021.31;5030898;28;20260;-62
2022/11/16 05:18:01;;;;;;;14.07;10.40;;;6.00;99.90;;;-141.84;78.06;19031.47;5031227;28;20226;-62
2022/11/16 05:25:58;;;;;;;12.80;10.10;;;6.00;99.90;;;-141.84;78.38;19053.81;5050482;28;20283;-63
2022/11/16 05:28:26;;;;;;;11.97;10.07;;;5.90;99.90;;;-141.84;77.60;19049.75;5050971;28;20201;-62
2022/11/16 05:30:54;;;;;;;13.73;10.27;;;6.00;99.90;;;-141.84;76.94;19074.13;5051387;28;20213;-62
2022/11/16 05:33:23;;;;;;;14.27;10.17;;;6.00;99.90;;;-141.84;76.80;19047.72;5050946;28;20276;-62
2022/11/16 05:35:51;;;;;;;12.90;9.60;;;6.00;99.90;;;-141.84;76.76;19045.69;5050733;28;20251;-63
2022/11/16 05:38:19;;;;;;;13.57;10.63;;;6.10;99.90;;;-141.84;76.85;19045.69;5050778;28;20282;-60
2022/11/16 05:40:47;;;;;;;13.73;10.37;;;6.10;99.90;;;-141.84;77.09;19031.47;5050489;28;20228;-62
2022/11/16 05:43:17;;;;;;;14.13;10.73;;;6.10;99.90;;;-141.84;76.88;19088.34;5051203;28;20221;-61
2022/11/16 05:45:45;;;;;;;11.73;9.67;;;6.10;99.90;;;-141.84;77.32;19051.78;5030677;28;20284;-62
2022/11/16 05:48:13;;;;;;;13.13;10.40;;;6.10;99.90;;;-141.84;77.62;19029.44;5030769;28;20233;-61
2022/11/16 05:50:41;;;;;;;13.47;10.20;;;6.00;99.90;;;-141.84;77.39;19045.69;5030793;28;20226;-61
2022/11/16 05:53:10;;;;;;;14.07;10.53;;;6.00;99.90;;;-141.84;78.17;19039.59;5030809;28;20248;-62
2022/11/16 05:55:38;;;;;;;13.30;10.10;;;6.00;99.90;;;-141.84;77.44;19053.81;5030639;28;20202;-62
2022/11/16 05:58:06;;;;;;;14.60;10.67;;;6.00;99.90;;;-141.84;77.16;19102.56;5031194;28;20198;-61
2022/11/16 06:00:36;;;;;;;13.33;9.93;;;6.10;99.90;;;-141.84;77.58;19045.69;5030150;28;20622;-62
2022/11/16 06:03:04;;;;;;;12.70;9.40;;;6.10;99.90;;;-141.84;77.67;19021.31;5030625;28;20768;-61
2022/11/16 06:05:34;;;;;;;14.23;9.93;;;6.00;99.90;;;-141.84;77.69;19027.41;5030389;28;20226;-60
2022/11/16 06:08:07;;;;;;;13.50;10.10;;;6.00;99.90;;;-141.84;77.94;19045.69;5030486;28;20226;-62
2022/11/16 06:10:36;;;;;;;13.90;10.57;;;6.00;99.90;;;-141.84;78.77;19031.47;5030245;28;20198;-61
2022/11/16 06:13:04;;;;;;;14.00;10.80;;;6.00;99.90;;;-141.84;78.38;19033.50;5030877;28;20205;-62
2022/11/16 06:15:38;;;;;;;13.67;10.20;;;6.00;99.90;;;-141.84;78.43;19003.00;5033403;28;20237;-62
2022/11/16 06:18:07;;;;;;;12.77;10.70;;;6.00;99.90;;;-141.84;79.02;18990.81;5034548;28;20541;-64
2022/11/16 06:20:39;;;;;;;14.17;10.60;;;5.90;99.90;;;-141.84;79.18;19031.47;5033947;28;20218;-62
2022/11/16 06:23:07;;;;;;;13.23;10.57;;;5.90;99.90;;;-141.84;79.29;18986.75;5034366;28;20221;-61
2022/11/16 06:25:38;;;;;;;14.43;10.60;;;5.90;99.90;;;-141.84;79.34;19013.16;5033736;28;20692;-61
2022/11/16 06:28:07;;;;;;;13.77;9.97;;;5.90;99.90;;;-141.84;78.23;19021.31;5034614;28;20193;-63
2022/11/16 06:30:36;;;;;;;14.13;10.70;;;6.00;99.90;;;-141.84;78.27;19017.25;5033832;28;20272;-61
2022/11/16 06:33:07;;;;;;;12.37;9.97;;;6.00;99.90;;;-141.84;78.42;19025.38;5033891;28;20229;-61
2022/11/16 06:35:35;;;;;;;14.33;9.73;;;6.00;99.90;;;-141.84;79.15;19023.34;5034124;28;20246;-63
2022/11/16 06:38:03;;;;;;;12.33;10.37;;;6.00;99.90;;;-141.84;79.56;19035.53;5034103;28;20267;-61
2022/11/16 06:40:31;;;;;;;14.10;10.10;;;6.00;99.90;;;-141.84;78.50;19027.41;5033623;28;20210;-63
2022/11/16 06:43:00;;;;;;;13.57;10.23;;;6.00;99.90;;;-141.84;78.48;19057.88;5033912;28;20704;-60
2022/11/16 06:45:28;;;;;;;13.17;10.23;;;6.10;99.90;;;-141.84;78.25;19017.25;5033538;28;20263;-62
2022/11/16 06:47:56;;;;;;;13.47;10.33;;;6.10;99.90;;;-141.84;77.75;19021.31;5033500;28;20237;-63
2022/11/16 06:50:26;;;;;;;12.43;9.27;;;6.10;99.90;;;-141.84;77.45;19053.81;5033678;28;20271;-62
2022/11/16 06:52:54;;;;;;;14.93;10.67;;;6.20;99.90;;;-141.84;77.72;19045.69;5033424;28;20743;-62
2022/11/16 06:55:22;;;;;;;13.03;9.90;;;6.10;99.90;;;-141.84;77.66;19059.91;5033648;28;20202;-60
2022/11/16 06:57:50;;;;;;;15.53;10.83;;;6.10;99.90;;;-141.84;77.36;19051.78;5033580;28;20206;-61
2022/11/16 07:00:18;;;;;;;13.13;10.27;;;6.20;99.90;;;-141.84;77.00;19078.19;5033363;28;20280;-62
2022/11/16 07:02:47;;;;;;;12.33;10.27;;;6.30;99.90;;;-141.84;76.87;19033.50;5033162;28;20606;-62
2022/11/16 07:05:15;;;;;;;11.53;9.57;;;6.20;99.90;;;-141.84;76.98;19096.47;5033548;28;20295;-62
2022/11/16 07:07:44;;;;;;;13.17;9.77;;;6.30;99.90;;;-141.84;77.09;19055.84;5033335;28;20280;-61
2022/11/16 07:10:13;;;;;;;12.57;9.63;;;6.30;99.90;;;-141.84;76.46;19084.28;5033606;28;20225;-62
2022/11/16 07:12:42;;;;;;;13.07;9.57;;;6.30;99.90;;;-141.84;76.95;19074.13;5032852;28;20225;-62
2022/11/16 07:15:10;;;;;;;13.67;10.33;;;6.30;99.90;;;-141.84;76.95;19086.31;5033128;28;20229;-62
2022/11/16 07:17:39;;;;;;;13.83;9.80;;;6.30;99.90;;;-141.84;76.91;19041.63;5033079;28;20581;-62
2022/11/16 07:20:10;;;;;;;12.00;9.73;;;6.40;99.90;;;-141.84;76.30;19070.06;5032865;28;20221;-62
2022/11/16 07:22:38;;;;;;;11.83;9.40;;;6.40;99.90;;;-141.84;76.46;19076.16;5032943;28;20193;-62
2022/11/16 07:25:09;;;;;;;15.03;10.30;;;6.40;99.90;;;-141.84;76.07;19078.19;5033422;28;20222;-61
2022/11/16 07:27:37;;;;;;;13.20;9.07;;;6.50;99.90;;;-141.84;76.21;19078.19;5032428;28;20241;-60
2022/11/16 07:30:07;;;;;;;12.47;9.43;;;6.40;99.90;;;-141.84;75.28;19082.25;5032762;28;20784;-63
2022/11/16 07:32:38;;;;;;;12.43;9.37;;;6.60;99.90;;;-141.84;75.73;19114.78;5032792;28;20226;-61
2022/11/16 07:35:07;;;;;;;11.20;8.73;;;6.60;99.90;;;-141.84;75.45;19106.66;5032946;28;20225;-61
2022/11/16 07:37:35;;;;;;;11.23;8.77;;;6.60;99.90;;;-141.84;75.54;19092.41;5032652;28;20579;-62
2022/11/16 07:40:04;;;;;;;12.27;9.40;;;6.60;99.90;;;-141.84;75.29;19049.75;5033166;28;20220;-63
2022/11/16 07:42:34;;;;;;;10.33;8.57;;;6.60;99.90;;;-141.84;75.31;19112.75;5032475;28;20775;-62
2022/11/16 07:45:02;;;;;;;10.87;8.93;;;6.70;99.90;;;-141.84;75.16;19092.41;5032600;28;20237;-61
2022/11/16 07:47:37;;;;;;;10.63;8.43;;;6.70;99.90;;;-141.84;75.49;19120.88;5032573;28;20222;-61
2022/11/16 07:50:06;;;;;;;12.13;9.30;;;6.70;99.90;;;-141.84;75.05;19112.75;5032581;28;20233;-62
2022/11/16 07:52:34;;;;;;;11.30;8.83;;;6.80;99.90;;;-141.84;74.81;19124.94;5032416;28;20210;-61
2022/11/16 07:55:04;;;;;;;10.83;8.47;;;6.80;99.90;;;-141.84;73.83;19114.78;5033379;28;20561;-61
2022/11/16 07:57:33;;;;;;;10.93;8.00;;;6.80;99.90;;;-141.84;74.06;19094.44;5032630;28;20233;-62
2022/11/16 08:00:02;;;;;;;11.17;8.80;;;6.90;99.90;;;-141.84;73.85;19108.69;5032544;28;20625;-64
2022/11/16 08:02:31;;;;;;;11.53;7.70;;;6.90;99.90;;;-141.84;73.99;19155.41;5032412;28;20229;-62
2022/11/16 08:04:59;;;;;;;10.57;8.17;;;7.00;99.90;;;-141.84;73.15;19114.78;5032416;28;20609;-63
2022/11/16 08:07:27;;;;;;;9.50;7.83;;;7.10;99.90;;;-141.84;73.06;19179.78;5032744;28;20571;-62
2022/11/16 08:09:55;;;;;;;10.93;8.03;;;7.10;99.90;;;-141.84;72.38;19167.59;5032352;28;20206;-62
2022/11/16 08:12:23;;;;;;;11.80;8.60;;;7.20;99.90;;;-141.84;72.74;19141.19;5032041;28;20722;-62
2022/11/16 08:14:52;;;;;;;9.40;7.97;;;7.20;99.90;;;-141.84;72.59;19192.00;5032092;28;20229;-62
2022/11/16 08:17:21;;;;;;;9.70;7.73;;;7.20;99.90;;;-141.84;72.08;19171.66;5032125;28;20275;-61
2022/11/16 08:19:49;;;;;;;9.53;8.00;;;7.30;99.90;;;-141.84;71.88;19202.16;5031816;28;20222;-62
2022/11/16 08:22:17;;;;;;;9.87;7.53;;;7.40;99.90;;;-141.84;71.70;19169.63;5032619;28;20198;-62
2022/11/16 08:24:45;;;;;;;9.00;7.27;;;7.40;99.90;;;-141.84;71.67;19167.59;5032162;28;20237;-62
2022/11/16 08:27:14;;;;;;;9.53;7.87;;;7.40;99.90;;;-141.84;71.59;19198.09;5047178;28;20245;-63
2022/11/16 08:29:42;;;;;;;8.33;6.87;;;7.70;99.90;;;-141.84;71.03;19212.31;5051449;28;20650;-62
2022/11/16 08:32:11;;;;;;;8.60;6.67;;;7.50;99.90;;;-141.84;70.99;19208.25;5051525;28;20231;-62
2022/11/16 08:34:40;;;;;;;8.00;6.60;;;7.50;99.90;;;-141.84;71.00;19218.41;5051585;28;20205;-61
2022/11/16 08:37:08;;;;;;;8.80;7.40;;;7.50;99.90;;;-141.84;70.79;19187.91;5051671;28;20205;-63
2022/11/16 08:39:36;;;;;;;8.83;7.07;;;7.50;99.90;;;-141.84;70.64;19212.31;5050400;28;20240;-64
2022/11/16 08:42:04;;;;;;;9.37;7.30;;;7.60;99.90;;;-141.84;70.55;19208.25;5051040;28;20271;-62
2022/11/16 08:44:32;;;;;;;9.03;6.87;;;7.60;99.90;;;-141.84;70.86;19200.13;5050900;28;20685;-63
2022/11/16 08:47:00;;;;;;;8.57;7.03;;;7.60;99.90;;;-141.84;70.88;19206.22;5051174;28;20240;-62
2022/11/16 08:49:30;;;;;;;8.30;6.70;;;7.60;99.90;;;-141.84;70.43;19244.81;5050849;28;20262;-62
2022/11/16 08:51:58;;;;;;;8.30;6.90;;;7.60;99.90;;;-141.84;70.69;19224.50;5051834;28;20205;-63
2022/11/16 08:54:28;;;;;;;8.43;7.27;;;7.60;99.90;;;-141.84;70.50;19194.03;5051035;28;20328;-61
2022/11/16 08:56:56;;;;;;;8.33;6.33;;;7.70;99.90;;;-141.84;70.40;19218.41;5051005;28;20235;-62
2022/11/16 08:59:24;;;;;;;9.47;7.03;;;7.70;99.90;;;-141.84;70.15;19222.47;5050863;28;20225;-65
2022/11/16 09:01:53;;;;;;;8.27;6.63;;;7.80;99.90;;;-141.84;70.28;19204.19;5051304;28;20225;-62
2022/11/16 09:04:22;;;;;;;8.30;6.90;;;7.90;99.90;;;-141.84;71.07;19222.47;5050998;28;20217;-61
2022/11/16 09:06:53;;;;;;;8.30;6.63;;;7.80;99.90;;;-141.84;70.72;19224.50;5051779;28;20209;-60
2022/11/16 09:09:22;;;;;;;8.10;6.93;;;7.80;99.90;;;-141.84;70.59;19228.56;5050691;28;20229;-62
2022/11/16 09:11:52;;;;;;;8.93;6.50;;;7.90;99.90;;;-141.84;70.37;19232.63;5050539;28;20786;-62
2022/11/16 09:14:20;;;;;;;9.63;6.77;;;7.90;99.90;;;-141.84;69.66;19269.22;5050524;28;20225;-64
2022/11/16 09:16:49;;;;;;;8.50;6.73;;;8.00;99.90;;;-141.84;70.43;19265.13;5050699;28;20231;-63
2022/11/16 09:19:17;;;;;;;10.47;7.53;;;8.00;99.90;;;-141.84;69.98;19271.25;5051129;28;20215;-62
2022/11/16 09:21:45;;;;;;;8.90;7.30;;;8.10;99.90;;;-141.84;70.45;19261.06;5050615;28;20252;-65
2022/11/16 09:24:15;;;;;;;9.47;7.77;;;8.10;99.90;;;-141.84;70.38;19236.69;5050496;28;20678;-65
2022/11/16 09:26:43;;;;;;;8.93;7.30;;;8.10;99.90;;;-141.84;69.93;19275.31;5050553;28;20232;-65
2022/11/16 09:29:14;;;;;;;9.80;7.53;;;8.10;99.90;;;-141.84;70.06;19261.06;5050570;28;20665;-65
2022/11/16 09:31:43;;;;;;;9.47;7.63;;;8.10;99.90;;;-141.84;70.41;19257.00;5050821;28;20278;-64
2022/11/16 09:34:11;;;;;;;8.73;7.13;;;8.10;99.90;;;-141.84;70.01;19277.34;5051045;28;20573;-65
2022/11/16 09:36:39;;;;;;;9.90;7.50;;;8.20;99.90;;;-141.84;70.41;19263.09;5050518;28;20229;-67
2022/11/16 09:39:07;;;;;;;9.10;7.10;;;8.10;99.90;;;-141.84;70.06;19305.78;5050139;28;20237;-65
2022/11/16 09:42:11;;;;;;;10.10;7.30;;;8.10;99.90;;;-141.84;70.43;19275.31;5050087;28;20278;-65
2022/11/16 09:44:58;;;;;;;9.67;6.93;;;8.10;99.90;;;-141.84;70.80;19273.28;5049816;28;20221;-64
2022/11/16 09:47:43;;;;;;;8.90;7.17;;;8.10;99.90;;;-141.84;70.99;19269.22;5050060;28;20254;-65
2022/11/16 09:50:31;;;;;;;9.63;7.57;;;8.10;99.90;;;-141.84;70.67;19236.69;5050214;28;20579;-65
2022/11/16 09:53:16;;;;;;;8.70;6.87;;;8.10;99.90;;;-141.84;69.85;19248.88;5050279;28;20295;-65
2022/11/16 09:55:52;;;;;;;9.77;7.20;;;8.10;99.90;;;-141.84;70.38;19236.69;5050238;28;20251;-63
2022/11/16 09:58:29;;;;;;;10.03;7.67;;;8.20;99.90;;;-141.84;70.77;19269.22;5059695;28;20692;-64
2022/11/16 10:01:05;;;;;;;9.50;7.20;;;8.20;99.90;;;-141.84;70.38;19269.22;5070334;28;20640;-64
2022/11/16 10:03:42;;;;;;;9.57;6.80;;;8.20;99.90;;;-141.84;70.19;19281.41;5050087;28;20247;-63
2022/11/16 10:06:22;;;;;;;8.93;6.87;;;8.20;99.90;;;-141.84;70.05;19313.91;5049842;28;20708;-63
2022/11/16 10:08:55;;;;;;;8.13;7.07;;;8.30;99.90;;;-141.84;70.06;19275.31;5044115;28;20697;-63
2022/11/16 10:11:55;;;;;;;8.90;7.03;;;8.30;99.90;;;-141.84;69.70;19273.28;5030180;28;20264;-61
2022/11/16 10:15:06;;;;;;;8.27;6.53;;;8.30;99.90;;;-141.84;70.07;19244.81;5030049;28;20234;-66
2022/11/16 10:17:54;;;;;;;7.50;6.43;;;8.40;99.90;;;-141.84;70.18;19295.63;5030338;28;20225;-65
2022/11/16 10:21:06;;;;;;;9.10;6.67;;;8.40;99.90;;;-141.84;70.71;19291.56;5047263;28;20612;-66
2022/11/16 10:23:57;;;;;;;8.50;6.60;;;8.30;99.90;;;-141.84;70.65;19297.66;5045935;28;20233;-66
2022/11/16 10:26:38;;;;;;;8.33;6.63;;;8.40;99.90;;;-141.84;70.29;19297.66;5050043;28;20267;-67
2022/11/16 10:29:30;;;;;;;8.77;6.47;;;8.40;99.90;;;-141.84;71.27;19281.41;5050083;28;20251;-65
2022/11/16 10:32:16;;;;;;;9.07;6.43;;;8.40;99.90;;;-141.84;71.65;19267.16;5050319;28;20232;-65
2022/11/16 10:34:53;;;;;;;8.57;7.23;;;8.40;99.90;;;-141.84;72.12;19273.28;5049942;28;20699;-66
2022/11/16 10:37:28;;;;;;;7.87;6.50;;;8.40;99.90;;;-141.84;72.23;19220.44;5049833;28;20273;-64
2022/11/16 10:39:56;;;;;;;9.87;7.17;;;8.40;99.90;;;-141.84;73.01;19248.88;5039943;28;20194;-63
2022/11/16 10:42:34;;;;;;;9.93;7.63;;;8.40;99.90;;;-141.84;73.24;19265.13;5047609;28;20228;-63
2022/11/16 10:45:15;;;;;;;9.17;7.00;;;8.40;99.90;;;-141.84;73.32;19240.75;5049734;28;20228;-63
2022/11/16 10:47:54;;;;;;;8.30;7.20;;;8.40;99.90;;;-141.84;73.68;19257.00;5049643;28;20712;-63
2022/11/16 10:50:39;;;;;;;9.63;7.50;;;8.40;99.90;;;-141.84;73.53;19252.94;5049578;28;20236;-62
2022/11/16 10:53:12;;;;;;;9.87;7.73;;;8.40;99.90;;;-141.84;73.49;19228.56;5049638;28;20763;-65
2022/11/16 10:55:41;;;;;;;9.47;7.83;;;8.50;99.90;;;-141.84;73.87;19248.88;5049501;28;20291;-64
2022/11/16 10:58:09;;;;;;;8.67;7.33;;;8.50;99.90;;;-141.84;74.04;19240.75;5050143;28;20197;-65
2022/11/16 11:00:42;;;;;;;10.13;7.50;;;8.50;99.90;;;-141.84;74.57;19246.84;5049591;28;20233;-64
2022/11/16 11:03:13;;;;;;;9.80;7.30;;;8.50;99.90;;;-141.84;74.64;19224.50;5053178;28;20646;-63
2022/11/16 11:05:53;;;;;;;8.37;6.83;;;8.40;99.90;;;-141.84;74.95;19232.63;5052244;28;20235;-63
2022/11/16 11:08:29;;;;;;;7.63;6.83;;;8.40;99.90;;;-141.84;74.82;19238.72;5053189;28;20715;-63